createdAt,value
2022-11-30T00:00:38.040Z,1.91
2022-11-30T00:03:05.398Z,1.91
2022-11-30T00:05:32.931Z,1.87
2022-11-30T00:08:04.282Z,1.86
2022-11-30T00:10:31.030Z,1.88
2022-11-30T00:12:57.818Z,1.85
2022-11-30T00:15:24.610Z,1.83
2022-11-30T00:17:56.729Z,1.79
2022-11-30T00:20:23.892Z,1.76
2022-11-30T00:22:50.684Z,1.75
2022-11-30T00:25:17.601Z,1.78
2022-11-30T00:27:45.285Z,1.78
2022-11-30T00:30:13.491Z,1.80
2022-11-30T00:32:40.382Z,1.76
2022-11-30T00:35:07.537Z,1.80
2022-11-30T00:37:37.635Z,1.80
2022-11-30T00:40:06.168Z,1.75
2022-11-30T00:42:32.881Z,1.79
2022-11-30T00:44:59.736Z,1.76
2022-11-30T00:47:26.574Z,1.73
2022-11-30T00:49:53.431Z,1.69
2022-11-30T00:52:20.291Z,1.76
2022-11-30T00:54:47.248Z,1.74
2022-11-30T00:57:14.358Z,1.73
2022-11-30T00:59:41.311Z,1.78
2022-11-30T01:02:08.589Z,1.74
2022-11-30T01:04:35.373Z,1.74
2022-11-30T01:07:02.628Z,1.71
2022-11-30T01:09:29.486Z,1.71
2022-11-30T01:11:56.299Z,1.72
2022-11-30T01:14:23.080Z,1.67
2022-11-30T01:16:55.957Z,1.66
2022-11-30T01:19:24.104Z,1.66
2022-11-30T01:21:50.868Z,1.62
2022-11-30T01:24:17.629Z,1.55
2022-11-30T01:26:44.472Z,1.57
2022-11-30T01:29:11.254Z,1.60
2022-11-30T01:31:38.363Z,1.61
2022-11-30T01:34:05.201Z,1.56
2022-11-30T01:36:32.481Z,1.57
2022-11-30T01:38:59.326Z,1.59
2022-11-30T01:41:32.938Z,1.59
2022-11-30T01:44:05.568Z,1.59
2022-11-30T01:47:02.120Z,1.61
2022-11-30T01:49:41.211Z,1.60
2022-11-30T01:52:31.557Z,1.60
2022-11-30T01:55:23.725Z,1.55
2022-11-30T01:58:03.933Z,1.53
2022-11-30T02:00:30.768Z,1.51
2022-11-30T02:03:06.125Z,1.51
2022-11-30T02:05:36.550Z,1.45
2022-11-30T02:08:04.921Z,1.43
2022-11-30T02:10:36.128Z,1.43
2022-11-30T02:13:02.981Z,1.42
2022-11-30T02:15:36.295Z,1.46
2022-11-30T02:18:17.974Z,1.43
2022-11-30T02:20:58.223Z,1.50
2022-11-30T02:23:56.710Z,1.45
2022-11-30T02:26:53.915Z,1.46
2022-11-30T02:29:59.025Z,1.50
2022-11-30T02:32:36.147Z,1.46
2022-11-30T02:35:04.899Z,1.52
2022-11-30T02:37:34.377Z,1.53
2022-11-30T02:40:01.163Z,1.53
2022-11-30T02:42:28.026Z,1.51
2022-11-30T02:44:54.967Z,1.48
2022-11-30T02:47:35.334Z,1.45
2022-11-30T02:50:14.670Z,1.43
2022-11-30T02:52:42.631Z,1.39
2022-11-30T02:55:14.818Z,1.39
2022-11-30T02:57:41.722Z,1.38
2022-11-30T03:00:10.497Z,1.38
2022-11-30T03:02:37.781Z,1.34
2022-11-30T03:05:06.233Z,1.34
2022-11-30T03:07:33.701Z,1.37
2022-11-30T03:10:01.027Z,1.39
2022-11-30T03:12:28.453Z,1.43
2022-11-30T03:14:55.227Z,1.42
2022-11-30T03:17:22.199Z,1.41
2022-11-30T03:19:49.064Z,1.42
2022-11-30T03:22:15.993Z,1.43
2022-11-30T03:24:42.739Z,1.40
2022-11-30T03:27:09.645Z,1.37
2022-11-30T03:29:36.425Z,1.40
2022-11-30T03:32:03.962Z,1.42
2022-11-30T03:34:31.546Z,1.43
2022-11-30T03:36:58.394Z,1.42
2022-11-30T03:39:25.824Z,1.44
2022-11-30T03:41:52.611Z,1.46
2022-11-30T03:44:19.694Z,1.43
2022-11-30T03:46:46.606Z,1.43
2022-11-30T03:49:13.453Z,1.41
2022-11-30T03:51:40.228Z,1.39
2022-11-30T03:54:07.077Z,1.43
2022-11-30T03:56:35.176Z,1.46
2022-11-30T03:59:01.974Z,1.47
2022-11-30T04:01:28.748Z,1.48
2022-11-30T04:03:55.602Z,1.44
2022-11-30T04:06:22.593Z,1.44
2022-11-30T04:08:49.824Z,1.46
2022-11-30T04:11:17.244Z,1.42
2022-11-30T04:13:45.038Z,1.36
2022-11-30T04:16:12.418Z,1.40
2022-11-30T04:18:39.768Z,1.36
2022-11-30T04:21:07.537Z,1.38
2022-11-30T04:23:37.543Z,1.36
2022-11-30T04:26:06.531Z,1.35
2022-11-30T04:28:33.877Z,1.33
2022-11-30T04:31:01.765Z,1.32
2022-11-30T04:33:29.066Z,1.34
2022-11-30T04:35:58.315Z,1.29
2022-11-30T04:38:26.527Z,1.32
2022-11-30T04:40:53.710Z,1.33
2022-11-30T04:43:20.969Z,1.37
2022-11-30T04:45:48.065Z,1.38
2022-11-30T04:48:16.160Z,1.37
2022-11-30T04:50:43.314Z,1.38
2022-11-30T04:53:10.769Z,1.34
2022-11-30T04:55:39.204Z,1.34
2022-11-30T04:58:07.093Z,1.34
2022-11-30T05:00:35.215Z,1.34
2022-11-30T05:03:02.457Z,1.33
2022-11-30T05:05:29.403Z,1.34
2022-11-30T05:07:58.480Z,1.29
2022-11-30T05:10:26.959Z,1.32
2022-11-30T05:12:54.283Z,1.30
2022-11-30T05:15:21.170Z,1.33
2022-11-30T05:17:48.073Z,1.28
2022-11-30T05:20:14.989Z,1.24
2022-11-30T05:22:41.786Z,1.27
2022-11-30T05:25:09.465Z,1.29
2022-11-30T05:27:37.233Z,1.30
2022-11-30T05:30:05.155Z,1.28
2022-11-30T05:32:32.213Z,1.26
2022-11-30T05:34:59.416Z,1.25
2022-11-30T05:37:26.732Z,1.28
2022-11-30T05:39:53.787Z,1.29
2022-11-30T05:42:20.927Z,1.27
2022-11-30T05:44:48.284Z,1.26
2022-11-30T05:47:16.387Z,1.26
2022-11-30T05:49:43.441Z,1.35
2022-11-30T05:52:10.709Z,1.37
2022-11-30T05:54:37.518Z,1.39
2022-11-30T05:57:04.344Z,1.39
2022-11-30T05:59:31.276Z,1.40
2022-11-30T06:01:58.297Z,1.41
2022-11-30T06:04:25.398Z,1.44
2022-11-30T06:06:52.270Z,1.41
2022-11-30T06:09:19.032Z,1.43
2022-11-30T06:11:45.820Z,1.41
2022-11-30T06:14:12.680Z,1.45
2022-11-30T06:16:39.881Z,1.44
2022-11-30T06:19:07.313Z,1.45
2022-11-30T06:21:34.967Z,1.51
2022-11-30T06:24:01.783Z,1.53
2022-11-30T06:26:28.519Z,1.48
2022-11-30T06:28:55.341Z,1.56
2022-11-30T06:31:22.158Z,1.57
2022-11-30T06:33:49.052Z,1.58
2022-11-30T06:36:21.868Z,1.59
2022-11-30T06:38:48.798Z,1.62
2022-11-30T06:41:15.700Z,1.60
2022-11-30T06:43:42.560Z,1.60
2022-11-30T06:46:09.756Z,1.58
2022-11-30T06:48:36.800Z,1.60
2022-11-30T06:51:08.708Z,1.61
2022-11-30T06:53:36.626Z,1.62
2022-11-30T06:56:10.403Z,1.66
2022-11-30T06:58:41.883Z,1.70
2022-11-30T07:01:11.560Z,1.70
2022-11-30T07:03:39.285Z,1.69
2022-11-30T07:06:11.465Z,1.68
2022-11-30T07:08:39.407Z,1.70
2022-11-30T07:11:07.896Z,1.73
2022-11-30T07:13:35.125Z,1.71
2022-11-30T07:16:07.304Z,1.73
2022-11-30T07:18:34.718Z,1.77
2022-11-30T07:21:02.586Z,1.79
2022-11-30T07:23:29.543Z,1.80
2022-11-30T07:26:00.605Z,1.80
2022-11-30T07:28:27.411Z,1.82
2022-11-30T07:30:54.210Z,1.85
2022-11-30T07:33:21.018Z,1.83
2022-11-30T07:35:47.821Z,1.84
2022-11-30T07:38:14.665Z,1.85
2022-11-30T07:40:41.499Z,1.89
2022-11-30T07:43:08.249Z,1.87
2022-11-30T07:45:35.092Z,1.87
2022-11-30T07:48:01.828Z,1.87
2022-11-30T07:50:28.827Z,1.90
2022-11-30T07:52:55.824Z,1.87
2022-11-30T07:55:22.670Z,1.91
2022-11-30T07:57:49.530Z,1.93
2022-11-30T08:00:16.571Z,1.96
2022-11-30T08:02:43.329Z,1.95
2022-11-30T08:05:10.976Z,1.96
2022-11-30T08:07:37.868Z,1.92
2022-11-30T08:10:05.630Z,1.92
2022-11-30T08:12:32.794Z,1.95
2022-11-30T08:15:19.253Z,1.94
2022-11-30T08:17:46.515Z,1.92
2022-11-30T08:20:13.406Z,1.96
2022-11-30T08:22:40.245Z,2.00
2022-11-30T08:25:07.547Z,1.98
2022-11-30T08:27:34.366Z,1.98
2022-11-30T08:30:01.207Z,1.98
2022-11-30T08:32:28.001Z,2.01
2022-11-30T08:34:54.823Z,2.05
2022-11-30T08:37:21.595Z,2.05
2022-11-30T08:39:48.387Z,2.07
2022-11-30T08:42:15.229Z,2.07
2022-11-30T08:44:41.938Z,2.08
2022-11-30T08:47:08.799Z,2.09
2022-11-30T08:49:35.617Z,2.12
2022-11-30T08:52:19.028Z,2.13
2022-11-30T08:54:47.940Z,2.18
2022-11-30T08:57:20.530Z,2.19
2022-11-30T08:59:47.637Z,2.22
2022-11-30T09:02:17.196Z,2.23
2022-11-30T09:04:44.337Z,2.29
2022-11-30T09:07:11.422Z,2.28
2022-11-30T09:09:38.203Z,2.30
2022-11-30T09:12:06.264Z,2.31
2022-11-30T09:14:33.862Z,2.24
2022-11-30T09:17:00.843Z,2.33
2022-11-30T09:19:27.680Z,2.36
2022-11-30T09:21:54.854Z,2.37
2022-11-30T09:24:21.635Z,2.43
2022-11-30T09:26:48.343Z,2.42
2022-11-30T09:29:15.223Z,2.43
2022-11-30T09:31:41.958Z,2.40
2022-11-30T09:34:11.742Z,2.43
2022-11-30T09:36:38.484Z,2.47
2022-11-30T09:39:05.315Z,2.50
2022-11-30T09:41:44.110Z,2.52
2022-11-30T09:44:13.937Z,2.52
2022-11-30T09:46:52.553Z,2.54
2022-11-30T09:49:27.556Z,2.62
2022-11-30T09:51:56.878Z,2.60
2022-11-30T09:54:30.895Z,2.58
2022-11-30T09:56:57.869Z,2.58
2022-11-30T09:59:31.651Z,2.63
2022-11-30T10:02:09.584Z,2.66
2022-11-30T10:04:36.520Z,2.67
2022-11-30T10:07:31.068Z,2.69
2022-11-30T10:10:32.117Z,2.72
2022-11-30T10:13:38.681Z,2.75
2022-11-30T10:16:26.142Z,2.76
2022-11-30T10:19:20.434Z,2.81
2022-11-30T10:22:05.315Z,2.85
2022-11-30T10:24:50.961Z,2.85
2022-11-30T10:27:29.456Z,2.82
2022-11-30T10:30:00.646Z,2.87
2022-11-30T10:32:40.411Z,2.88
2022-11-30T10:35:23.460Z,2.88
2022-11-30T10:37:53.259Z,2.92
2022-11-30T10:40:31.009Z,2.91
2022-11-30T10:43:17.557Z,2.94
2022-11-30T10:45:50.409Z,2.97
2022-11-30T10:48:44.148Z,3.00
2022-11-30T10:51:12.537Z,3.02
2022-11-30T10:53:39.371Z,3.05
2022-11-30T10:56:13.841Z,3.08
2022-11-30T10:59:11.836Z,3.11
2022-11-30T11:01:40.686Z,3.11
2022-11-30T11:04:25.285Z,3.13
2022-11-30T11:06:58.565Z,3.16
2022-11-30T11:09:25.354Z,3.18
2022-11-30T11:12:06.320Z,3.19
2022-11-30T11:14:37.981Z,3.20
2022-11-30T11:17:25.395Z,3.22
2022-11-30T11:19:52.426Z,3.22
2022-11-30T11:22:24.137Z,3.25
2022-11-30T11:24:54.108Z,3.24
2022-11-30T11:27:29.035Z,3.23
2022-11-30T11:30:14.760Z,3.26
2022-11-30T11:32:56.991Z,3.26
2022-11-30T11:35:43.299Z,3.27
2022-11-30T11:38:27.213Z,3.33
2022-11-30T11:40:59.530Z,3.32
2022-11-30T11:43:29.976Z,3.32
2022-11-30T11:46:01.964Z,3.33
2022-11-30T11:48:46.212Z,3.36
2022-11-30T11:51:12.982Z,3.32
2022-11-30T11:53:50.127Z,3.31
2022-11-30T11:56:29.187Z,3.34
2022-11-30T11:59:05.556Z,3.39
2022-11-30T12:01:50.291Z,3.42
2022-11-30T12:04:52.359Z,3.45
2022-11-30T12:07:37.856Z,3.46
2022-11-30T12:10:53.508Z,3.48
2022-11-30T12:13:42.742Z,3.52
2022-11-30T12:16:12.553Z,3.54
2022-11-30T12:18:58.970Z,3.52
2022-11-30T12:21:44.599Z,3.55
2022-11-30T12:24:45.196Z,3.55
2022-11-30T12:27:36.583Z,3.53
2022-11-30T12:30:12.271Z,3.58
2022-11-30T12:32:57.510Z,3.57
2022-11-30T12:35:36.451Z,3.60
2022-11-30T12:38:18.459Z,3.58
2022-11-30T12:41:06.774Z,3.62
2022-11-30T12:43:56.462Z,3.63
2022-11-30T12:46:33.927Z,3.64
2022-11-30T12:49:26.131Z,3.65
2022-11-30T12:52:25.158Z,3.65
2022-11-30T12:55:05.676Z,3.65
2022-11-30T12:57:55.416Z,3.66
2022-11-30T13:00:28.479Z,3.62
2022-11-30T13:03:27.018Z,3.66
2022-11-30T13:05:59.711Z,3.69
2022-11-30T13:08:43.176Z,3.69
2022-11-30T13:11:22.674Z,3.69
2022-11-30T13:13:52.752Z,3.71
2022-11-30T13:16:23.237Z,3.71
2022-11-30T13:18:59.041Z,3.72
2022-11-30T13:21:42.164Z,3.66
2022-11-30T13:24:16.624Z,3.66
2022-11-30T13:26:52.543Z,3.61
2022-11-30T13:29:51.483Z,3.66
2022-11-30T13:32:55.277Z,3.71
2022-11-30T13:35:30.673Z,3.73
2022-11-30T13:41:05.548Z,3.71
2022-11-30T13:43:45.945Z,3.73
2022-11-30T13:46:22.985Z,3.78
2022-11-30T13:49:08.757Z,3.79
2022-11-30T13:51:38.347Z,3.79
2022-11-30T13:54:42.817Z,3.78
2022-11-30T13:57:24.912Z,3.81
2022-11-30T13:59:54.417Z,3.82
2022-11-30T14:02:44.090Z,3.83
2022-11-30T14:05:16.785Z,3.84
2022-11-30T14:08:03.498Z,3.84
2022-11-30T14:10:42.039Z,3.84
2022-11-30T14:13:08.761Z,3.85
2022-11-30T14:15:38.494Z,3.83
2022-11-30T14:18:08.408Z,3.83
2022-11-30T14:21:02.844Z,3.78
2022-11-30T14:23:43.422Z,3.76
2022-11-30T14:26:13.833Z,3.79
2022-11-30T14:29:02.615Z,3.81
2022-11-30T14:31:53.324Z,3.85
2022-11-30T14:34:35.143Z,3.85
2022-11-30T14:37:21.224Z,3.87
2022-11-30T14:39:48.845Z,3.85
2022-11-30T14:42:30.705Z,3.86
2022-11-30T14:44:58.448Z,3.88
2022-11-30T14:47:33.243Z,3.90
2022-11-30T14:50:02.331Z,3.91
2022-11-30T14:52:55.377Z,3.95
2022-11-30T14:55:53.874Z,3.95
2022-11-30T14:58:39.357Z,3.94
2022-11-30T15:01:25.495Z,3.96
2022-11-30T15:03:56.507Z,3.95
2022-11-30T15:06:29.538Z,3.94
2022-11-30T15:08:58.031Z,3.96
2022-11-30T15:11:26.280Z,3.97
2022-11-30T15:13:55.932Z,3.95
2022-11-30T15:16:25.375Z,3.90
2022-11-30T15:18:54.323Z,3.90
2022-11-30T15:21:23.876Z,3.92
2022-11-30T15:23:52.490Z,3.92
2022-11-30T15:26:49.526Z,3.90
2022-11-30T15:29:28.251Z,3.92
2022-11-30T15:31:58.224Z,3.88
2022-11-30T15:34:24.976Z,3.88
2022-11-30T15:36:57.063Z,3.86
2022-11-30T15:39:26.914Z,3.87
2022-11-30T15:41:59.297Z,3.89
2022-11-30T15:44:46.765Z,3.89
2022-11-30T15:47:36.560Z,3.89
2022-11-30T15:50:26.529Z,3.92
2022-11-30T15:52:55.881Z,3.93
2022-11-30T15:55:44.367Z,3.95
2022-11-30T15:58:31.008Z,3.94
2022-11-30T16:01:03.981Z,3.93
2022-11-30T16:03:32.521Z,3.94
2022-11-30T16:06:01.978Z,3.96
2022-11-30T16:08:29.960Z,3.97
2022-11-30T16:10:56.952Z,3.95
2022-11-30T16:13:31.925Z,3.97
2022-11-30T16:15:58.901Z,3.93
2022-11-30T16:18:29.006Z,3.89
2022-11-30T16:20:59.263Z,3.86
2022-11-30T16:23:27.178Z,3.88
2022-11-30T16:25:56.174Z,3.84
2022-11-30T16:28:23.150Z,3.88
2022-11-30T16:30:51.017Z,3.89
2022-11-30T16:33:24.598Z,3.90
2022-11-30T16:35:56.110Z,3.94
2022-11-30T16:38:24.887Z,3.91
2022-11-30T16:40:53.362Z,3.94
2022-11-30T16:43:21.428Z,3.92
2022-11-30T16:45:50.155Z,3.93
2022-11-30T16:48:18.216Z,3.95
2022-11-30T16:50:47.776Z,3.93
2022-11-30T16:53:15.562Z,3.94
2022-11-30T16:55:43.549Z,3.96
2022-11-30T16:58:10.958Z,3.94
2022-11-30T17:00:40.608Z,3.96
2022-11-30T17:03:24.126Z,3.97
2022-11-30T17:05:51.461Z,3.97
2022-11-30T17:08:19.057Z,3.94
2022-11-30T17:10:50.241Z,3.96
2022-11-30T17:13:17.553Z,3.96
2022-11-30T17:15:45.168Z,3.96
2022-11-30T17:18:15.523Z,3.98
2022-11-30T17:20:42.904Z,3.95
2022-11-30T17:23:15.015Z,3.97
2022-11-30T17:25:42.177Z,3.95
2022-11-30T17:28:09.534Z,3.95
2022-11-30T17:30:38.031Z,3.97
2022-11-30T17:33:05.858Z,4.01
2022-11-30T17:35:33.155Z,4.01
2022-11-30T17:38:00.006Z,4.04
2022-11-30T17:40:27.560Z,4.05
2022-11-30T17:42:55.828Z,4.06
2022-11-30T17:45:22.900Z,4.06
2022-11-30T17:47:50.727Z,4.07
2022-11-30T17:50:18.321Z,4.09
2022-11-30T17:52:45.424Z,4.09
2022-11-30T17:55:13.073Z,4.09
2022-11-30T17:57:40.679Z,4.12
2022-11-30T18:00:08.898Z,4.14
2022-11-30T18:02:36.440Z,4.15
2022-11-30T18:05:04.091Z,4.14
2022-11-30T18:07:31.802Z,4.15
2022-11-30T18:09:59.795Z,4.15
2022-11-30T18:12:27.118Z,4.17
2022-11-30T18:14:55.433Z,4.14
2022-11-30T18:17:24.029Z,4.08
2022-11-30T18:19:52.443Z,4.08
2022-11-30T18:22:20.324Z,4.04
2022-11-30T18:24:48.174Z,4.05
2022-11-30T18:27:16.534Z,4.05
2022-11-30T18:29:45.492Z,4.06
2022-11-30T18:32:13.138Z,4.08
2022-11-30T18:34:40.456Z,4.12
2022-11-30T18:37:09.289Z,4.12
2022-11-30T18:39:37.235Z,4.11
2022-11-30T18:42:05.188Z,4.14
2022-11-30T18:44:33.017Z,4.10
2022-11-30T18:47:00.772Z,4.08
2022-11-30T18:49:28.066Z,4.08
2022-11-30T18:51:55.862Z,4.07
2022-11-30T18:54:24.211Z,4.05
2022-11-30T18:56:52.207Z,4.06
2022-11-30T18:59:20.255Z,4.03
2022-11-30T19:01:49.242Z,4.04
2022-11-30T19:04:17.902Z,4.03
2022-11-30T19:06:45.945Z,4.04
2022-11-30T19:09:17.393Z,4.01
2022-11-30T19:11:45.040Z,3.96
2022-11-30T19:14:14.633Z,3.93
2022-11-30T19:16:43.755Z,3.91
2022-11-30T19:19:14.306Z,3.87
2022-11-30T19:21:45.557Z,3.90
2022-11-30T19:24:13.975Z,3.91
2022-11-30T19:26:42.023Z,3.88
2022-11-30T19:29:12.143Z,3.92
2022-11-30T19:31:41.596Z,3.91
2022-11-30T19:34:12.944Z,3.90
2022-11-30T19:36:41.574Z,3.91
2022-11-30T19:39:10.777Z,3.90
2022-11-30T19:41:39.071Z,3.86
2022-11-30T19:44:07.156Z,3.89
2022-11-30T19:46:38.900Z,3.89
2022-11-30T19:49:07.380Z,3.89
2022-11-30T19:51:36.448Z,3.91
2022-11-30T19:54:04.003Z,3.94
2022-11-30T19:56:33.151Z,3.95
2022-11-30T19:59:11.424Z,3.96
2022-11-30T20:01:40.691Z,3.94
2022-11-30T20:04:08.843Z,3.92
2022-11-30T20:06:37.973Z,3.90
2022-11-30T20:09:08.130Z,3.90
2022-11-30T20:11:35.863Z,3.92
2022-11-30T20:14:04.143Z,3.96
2022-11-30T20:16:32.307Z,3.98
2022-11-30T20:19:02.676Z,3.88
2022-11-30T20:21:33.926Z,3.83
2022-11-30T20:24:05.877Z,3.77
2022-11-30T20:26:42.662Z,3.82
2022-11-30T20:29:15.213Z,3.84
2022-11-30T20:31:45.899Z,3.78
2022-11-30T20:34:13.965Z,3.78
2022-11-30T20:36:42.541Z,3.75
2022-11-30T20:39:12.584Z,3.76
2022-11-30T20:41:41.627Z,3.73
2022-11-30T20:44:15.307Z,3.73
2022-11-30T20:46:43.870Z,3.67
2022-11-30T20:49:27.569Z,3.64
2022-11-30T20:51:55.672Z,3.65
2022-11-30T20:54:23.749Z,3.65
2022-11-30T20:56:51.680Z,3.72
2022-11-30T20:59:20.239Z,3.74
2022-11-30T21:01:50.126Z,3.74
2022-11-30T21:04:21.151Z,3.69
2022-11-30T21:06:51.249Z,3.73
2022-11-30T21:09:20.338Z,3.74
2022-11-30T21:11:48.903Z,3.70
2022-11-30T21:14:16.544Z,3.72
2022-11-30T21:16:44.615Z,3.73
2022-11-30T21:19:13.484Z,3.75
2022-11-30T21:21:40.481Z,3.69
2022-11-30T21:24:09.504Z,3.71
2022-11-30T21:26:41.063Z,3.74
2022-11-30T21:29:12.593Z,3.72
2022-11-30T21:31:39.703Z,3.74
2022-11-30T21:34:06.856Z,3.69
2022-11-30T21:36:33.725Z,3.69
2022-11-30T21:39:06.019Z,3.66
2022-11-30T21:41:38.505Z,3.67
2022-11-30T21:44:07.883Z,3.67
2022-11-30T21:46:34.812Z,3.66
2022-11-30T21:49:02.451Z,3.71
2022-11-30T21:51:30.130Z,3.74
2022-11-30T21:53:59.950Z,3.63
2022-11-30T21:56:31.538Z,3.56
2022-11-30T21:58:59.490Z,3.62
2022-11-30T22:01:28.590Z,3.58
2022-11-30T22:03:55.770Z,3.53
2022-11-30T22:06:24.021Z,3.50
2022-11-30T22:08:51.035Z,3.52
2022-11-30T22:11:23.021Z,3.47
2022-11-30T22:13:54.104Z,3.51
2022-11-30T22:16:22.939Z,3.53
2022-11-30T22:18:52.995Z,3.46
2022-11-30T22:21:22.972Z,3.43
2022-11-30T22:23:57.843Z,3.41
2022-11-30T22:26:32.974Z,3.40
2022-11-30T22:29:06.654Z,3.49
2022-11-30T22:31:37.113Z,3.49
2022-11-30T22:34:05.618Z,3.48
2022-11-30T22:36:35.461Z,3.51
2022-11-30T22:39:11.256Z,3.51
2022-11-30T22:41:39.469Z,3.41
2022-11-30T22:44:06.259Z,3.40
2022-11-30T22:46:35.705Z,3.45
2022-11-30T22:49:04.966Z,3.48
2022-11-30T22:51:33.868Z,3.49
2022-11-30T22:54:02.222Z,3.50
2022-11-30T22:56:31.771Z,3.45
2022-11-30T22:58:59.810Z,3.43
2022-11-30T23:01:29.115Z,3.48
2022-11-30T23:04:00.546Z,3.48
2022-11-30T23:06:27.421Z,3.39
2022-11-30T23:08:54.280Z,3.40
2022-11-30T23:11:23.961Z,3.33
2022-11-30T23:13:50.884Z,3.37
2022-11-30T23:16:18.571Z,3.35
2022-11-30T23:18:56.291Z,3.41
2022-11-30T23:21:26.143Z,3.40
2022-11-30T23:23:54.547Z,3.41
2022-11-30T23:26:25.094Z,3.35
2022-11-30T23:28:54.065Z,3.36
2022-11-30T23:31:33.664Z,3.34
2022-11-30T23:34:04.856Z,3.34
2022-11-30T23:36:32.795Z,3.33
2022-11-30T23:39:02.723Z,3.34
2022-11-30T23:41:29.584Z,3.38
2022-11-30T23:43:56.385Z,3.30
2022-11-30T23:46:23.573Z,3.34
2022-11-30T23:48:50.806Z,3.32
2022-11-30T23:51:18.499Z,3.33
2022-11-30T23:53:45.238Z,3.24
2022-11-30T23:56:17.648Z,3.26
2022-11-30T23:58:44.657Z,3.21
